Time;durP1;ratioP1;P1;durP2;ratioP2;P2;SDS_P1;SDS_P2;PMS_P1;PMS_P2;Temp;Humidity;BMP_temperature;BMP_pressure;BME280_temperature;BME280_humidity;BME280_pressure;Samples;Min_cycle;Max_cycle;Signal;HPM_P1;HPM_P2
2023/06/02 00:01:24;;;;;;;19.55;3.60;;;10.70;99.90;;;;;;4984733;28;20412;-79
2023/06/02 00:03:53;;;;;;;19.48;3.50;;;10.70;99.90;;;;;;4953367;28;206911;-79
2023/06/02 00:06:19;;;;;;;17.65;3.38;;;10.70;99.90;;;;;;5017847;28;20054;-77
2023/06/02 00:08:50;;;;;;;23.65;3.58;;;10.70;99.90;;;;;;4858999;28;2587246;-76
2023/06/02 00:11:23;;;;;;;26.23;4.07;;;10.70;99.90;;;;;;5000758;28;20271;-77
2023/06/02 00:13:49;;;;;;;19.60;3.60;;;10.70;99.90;;;;;;4956189;28;99953;-77
2023/06/02 00:16:15;;;;;;;27.80;3.60;;;10.70;99.90;;;;;;5003481;28;20054;-79
2023/06/02 00:18:44;;;;;;;24.45;3.58;;;10.70;99.90;;;;;;4987332;28;217692;-81
2023/06/02 00:21:10;;;;;;;17.67;3.47;;;10.70;99.90;;;;;;4974004;28;20050;-81
2023/06/02 00:23:42;;;;;;;24.55;4.30;;;10.70;99.90;;;;;;4946430;28;215043;-77
2023/06/02 00:26:08;;;;;;;18.40;3.00;;;10.80;99.90;;;;;;5009410;28;20073;-80
2023/06/02 00:28:34;;;;;;;23.27;3.50;;;10.70;99.90;;;;;;4939007;28;233584;-82
2023/06/02 00:31:00;;;;;;;21.33;4.20;;;10.70;99.90;;;;;;5022482;28;20053;-79
2023/06/02 00:33:26;;;;;;;20.60;3.70;;;10.70;99.90;;;;;;4954805;28;208526;-80
2023/06/02 00:35:52;;;;;;;21.48;4.03;;;10.70;99.90;;;;;;4995871;28;20511;-79
2023/06/02 00:38:18;;;;;;;23.50;3.90;;;10.70;99.90;;;;;;4956373;28;214156;-78
2023/06/02 00:40:47;;;;;;;20.55;3.25;;;10.70;99.90;;;;;;5002702;28;20046;-76
2023/06/02 00:43:13;;;;;;;20.65;3.28;;;10.70;99.90;;;;;;4936955;28;208001;-78
2023/06/02 00:45:39;;;;;;;22.88;3.40;;;10.70;99.90;;;;;;5026153;28;20062;-78
2023/06/02 00:48:06;;;;;;;19.70;3.30;;;10.70;99.90;;;;;;4977445;28;216863;-77
2023/06/02 00:50:34;;;;;;;21.23;3.78;;;10.70;99.90;;;;;;5000899;28;20050;-77
2023/06/02 00:53:02;;;;;;;20.73;3.33;;;10.70;99.90;;;;;;4987354;28;221806;-77
2023/06/02 00:55:31;;;;;;;18.80;3.33;;;10.70;99.90;;;;;;4993455;28;95533;-81
2023/06/02 00:57:59;;;;;;;25.27;3.55;;;10.70;99.90;;;;;;4997844;28;20069;-82
2023/06/02 01:00:26;;;;;;;20.45;3.42;;;10.60;99.90;;;;;;4909239;28;271123;-77
2023/06/02 01:02:52;;;;;;;23.25;4.07;;;10.70;99.90;;;;;;4991186;28;20053;-77
2023/06/02 01:05:20;;;;;;;21.23;3.47;;;10.70;99.90;;;;;;4969413;28;223884;-75
2023/06/02 01:07:55;;;;;;;19.90;3.28;;;10.60;99.90;;;;;;4992979;28;20077;-78
2023/06/02 01:10:21;;;;;;;17.23;3.10;;;10.60;99.90;;;;;;4903905;28;1524944;-81
2023/06/02 01:12:48;;;;;;;22.50;3.25;;;10.60;99.90;;;;;;5016305;28;20049;-77
2023/06/02 01:15:14;;;;;;;23.13;3.50;;;10.60;99.90;;;;;;4981272;28;154062;-78
2023/06/02 01:17:45;;;;;;;23.23;3.60;;;10.60;99.90;;;;;;5021907;28;20056;-79
2023/06/02 01:20:13;;;;;;;21.77;3.53;;;10.50;99.90;;;;;;4988889;28;244013;-80
2023/06/02 01:22:50;;;;;;;21.88;3.13;;;10.50;99.90;;;;;;5049849;28;20731;-81
2023/06/02 01:25:22;;;;;;;24.95;3.85;;;10.50;99.90;;;;;;4980716;28;206415;-77
2023/06/02 01:27:49;;;;;;;22.98;3.65;;;10.50;99.90;;;;;;4975244;28;20054;-78
2023/06/02 01:30:19;;;;;;;18.40;3.53;;;10.50;99.90;;;;;;4971845;28;209907;-76
2023/06/02 01:33:09;;;;;;;19.80;3.70;;;10.50;99.90;;;;;;4992362;28;20057;-77
2023/06/02 01:35:42;;;;;;;23.17;3.65;;;10.50;99.90;;;;;;4953756;28;22398;-80
2023/06/02 01:38:09;;;;;;;19.02;3.30;;;10.60;99.90;;;;;;4982729;28;212892;-76
2023/06/02 01:40:36;;;;;;;17.63;3.08;;;10.50;99.90;;;;;;5046909;28;20063;-78
2023/06/02 01:43:03;;;;;;;22.08;3.83;;;10.50;99.90;;;;;;5013458;28;207901;-79
2023/06/02 01:45:32;;;;;;;19.92;3.30;;;10.50;99.90;;;;;;4969854;28;170429;-82
2023/06/02 01:48:02;;;;;;;23.05;3.33;;;10.50;99.90;;;;;;4993597;28;20072;-77
2023/06/02 01:50:29;;;;;;;23.85;3.30;;;10.50;99.90;;;;;;4972031;28;207948;-79
2023/06/02 01:52:55;;;;;;;16.40;2.75;;;10.50;99.90;;;;;;5013862;28;20054;-82
2023/06/02 01:55:21;;;;;;;26.67;4.03;;;10.50;99.90;;;;;;4992850;28;230293;-78
2023/06/02 01:57:48;;;;;;;20.40;3.10;;;10.50;99.90;;;;;;5047072;28;20050;-79
2023/06/02 02:00:14;;;;;;;20.67;3.45;;;10.50;99.90;;;;;;4939776;28;250118;-83
2023/06/02 02:02:40;;;;;;;22.92;3.78;;;10.50;99.90;;;;;;5014712;28;20069;-78
2023/06/02 02:05:07;;;;;;;22.05;3.10;;;10.50;99.90;;;;;;4963115;28;196856;-79
2023/06/02 02:07:34;;;;;;;21.02;2.92;;;10.50;99.90;;;;;;5011708;28;20057;-78
2023/06/02 02:10:02;;;;;;;21.25;3.53;;;10.50;99.90;;;;;;4963854;28;206505;-80
2023/06/02 02:12:29;;;;;;;19.13;3.10;;;10.40;99.90;;;;;;5007564;28;20062;-80
2023/06/02 02:14:58;;;;;;;20.40;3.28;;;10.40;99.90;;;;;;4974935;28;211629;-77
2023/06/02 02:17:26;;;;;;;24.13;3.92;;;10.40;99.90;;;;;;4991892;28;20069;-76
2023/06/02 02:19:55;;;;;;;20.95;3.28;;;10.40;99.90;;;;;;4982902;28;208321;-76
2023/06/02 02:22:23;;;;;;;18.17;3.30;;;10.40;99.90;;;;;;4993057;28;20058;-79
2023/06/02 02:24:50;;;;;;;16.77;3.65;;;10.40;99.90;;;;;;4976394;28;164222;-77
2023/06/02 02:27:19;;;;;;;20.88;3.28;;;10.40;99.90;;;;;;5007100;28;20084;-78
2023/06/02 02:29:45;;;;;;;26.40;3.67;;;10.40;99.90;;;;;;4953791;28;205768;-76
2023/06/02 02:32:11;;;;;;;21.60;2.92;;;10.40;99.90;;;;;;4996035;28;20550;-77
2023/06/02 02:34:40;;;;;;;19.17;2.95;;;10.50;99.90;;;;;;4952949;28;223635;-81
2023/06/02 02:37:10;;;;;;;22.42;3.38;;;10.50;99.90;;;;;;5006002;28;20054;-76
2023/06/02 02:39:39;;;;;;;22.33;3.70;;;10.50;99.90;;;;;;4965125;28;182743;-76
2023/06/02 02:42:08;;;;;;;22.45;3.50;;;10.50;99.90;;;;;;4986490;28;20069;-79
2023/06/02 02:44:34;;;;;;;24.85;3.55;;;10.50;99.90;;;;;;4974683;28;229104;-79
2023/06/02 02:47:00;;;;;;;21.10;3.75;;;10.50;99.90;;;;;;4989743;28;20055;-81
2023/06/02 02:49:26;;;;;;;23.52;3.58;;;10.50;99.90;;;;;;4950180;28;206900;-76
2023/06/02 02:51:53;;;;;;;20.10;3.30;;;10.50;99.90;;;;;;5013875;28;20054;-81
2023/06/02 02:54:21;;;;;;;29.38;3.78;;;10.60;99.90;;;;;;4939817;28;206817;-77
2023/06/02 02:56:48;;;;;;;19.90;3.38;;;10.50;99.90;;;;;;4988544;28;20065;-78
2023/06/02 02:59:15;;;;;;;23.67;3.33;;;10.50;99.90;;;;;;4943439;28;203155;-77
2023/06/02 03:01:44;;;;;;;23.65;3.60;;;10.50;99.90;;;;;;4999944;28;20058;-76
2023/06/02 03:04:11;;;;;;;21.25;3.05;;;10.50;99.90;;;;;;4946086;28;245989;-76
2023/06/02 03:06:43;;;;;;;20.77;3.30;;;10.50;99.90;;;;;;5025089;28;20069;-77
2023/06/02 03:09:09;;;;;;;25.63;3.85;;;10.50;99.90;;;;;;4967881;28;207450;-77
2023/06/02 03:11:35;;;;;;;17.25;3.05;;;10.50;99.90;;;;;;4996484;28;20046;-76
2023/06/02 03:14:01;;;;;;;20.42;3.22;;;10.60;99.90;;;;;;4956283;28;221774;-77
2023/06/02 03:16:28;;;;;;;22.90;3.45;;;10.60;99.90;;;;;;5002208;28;20053;-75
2023/06/02 03:18:55;;;;;;;19.02;3.35;;;10.60;99.90;;;;;;4942710;28;207131;-79
2023/06/02 03:21:22;;;;;;;23.25;2.95;;;10.60;99.90;;;;;;5000787;28;20514;-74
2023/06/02 03:23:49;;;;;;;27.23;3.95;;;10.60;99.90;;;;;;4956454;28;220291;-76
2023/06/02 03:26:20;;;;;;;22.35;3.17;;;10.60;99.90;;;;;;4975882;28;20049;-78
2023/06/02 03:28:46;;;;;;;20.85;3.50;;;10.60;99.90;;;;;;4966985;28;208575;-79
2023/06/02 03:31:12;;;;;;;27.40;3.72;;;10.60;99.90;;;;;;5019779;28;20054;-76
2023/06/02 03:33:38;;;;;;;18.25;2.75;;;10.60;99.90;;;;;;4945394;28;216817;-76
2023/06/02 03:36:05;;;;;;;18.17;3.30;;;10.60;99.90;;;;;;5011008;28;20065;-79
2023/06/02 03:38:31;;;;;;;22.35;3.13;;;10.60;99.90;;;;;;4942514;28;213462;-76
2023/06/02 03:40:57;;;;;;;20.77;3.50;;;10.60;99.90;;;;;;5013601;28;20058;-77
2023/06/02 03:43:23;;;;;;;20.08;3.25;;;10.60;99.90;;;;;;4936390;28;216602;-79
2023/06/02 03:45:49;;;;;;;25.52;3.20;;;10.70;99.90;;;;;;5000248;28;20061;-75
2023/06/02 03:48:15;;;;;;;24.30;3.87;;;10.70;99.90;;;;;;4938873;28;206138;-77
2023/06/02 03:50:42;;;;;;;20.20;3.50;;;10.70;99.90;;;;;;4987659;28;20057;-78
2023/06/02 03:53:08;;;;;;;27.75;3.53;;;10.80;99.90;;;;;;4957625;28;210769;-79
2023/06/02 03:55:37;;;;;;;18.15;3.08;;;10.70;99.90;;;;;;4981492;28;20388;-80
2023/06/02 03:58:03;;;;;;;20.45;3.75;;;10.80;99.90;;;;;;4988050;28;218959;-76
2023/06/02 04:00:29;;;;;;;28.05;3.25;;;10.80;99.90;;;;;;4974794;28;203689;-79
2023/06/02 04:02:59;;;;;;;25.35;3.05;;;10.80;99.90;;;;;;5013116;28;20121;-79
2023/06/02 04:05:25;;;;;;;23.55;3.42;;;10.80;99.90;;;;;;4960731;28;196966;-75
2023/06/02 04:07:59;;;;;;;21.58;3.90;;;10.80;99.90;;;;;;5018523;28;20066;-79
2023/06/02 04:10:28;;;;;;;24.30;4.20;;;10.80;99.90;;;;;;4942580;28;270251;-78
2023/06/02 04:12:54;;;;;;;20.55;3.75;;;10.90;99.90;;;;;;4988068;28;20065;-78
2023/06/02 04:15:20;;;;;;;23.13;4.13;;;10.90;99.90;;;;;;4937306;28;1165068;-76
2023/06/02 04:17:46;;;;;;;21.15;3.50;;;10.90;99.90;;;;;;5042109;28;20046;-78
2023/06/02 04:20:14;;;;;;;25.38;4.07;;;10.90;99.90;;;;;;4957559;28;206217;-76
2023/06/02 04:22:43;;;;;;;27.75;4.10;;;10.90;99.90;;;;;;5007686;28;20041;-77
2023/06/02 04:25:09;;;;;;;28.67;4.10;;;11.00;99.90;;;;;;4938552;28;159901;-76
2023/06/02 04:27:35;;;;;;;27.00;3.85;;;11.00;99.90;;;;;;4990113;28;20070;-76
2023/06/02 04:30:02;;;;;;;20.95;3.58;;;11.00;99.90;;;;;;4959962;28;207534;-75
2023/06/02 04:32:28;;;;;;;23.27;3.28;;;11.00;99.90;;;;;;5011552;28;20061;-77
2023/06/02 04:34:55;;;;;;;21.10;3.75;;;11.10;99.90;;;;;;4979624;28;206315;-78
2023/06/02 04:37:21;;;;;;;21.60;3.47;;;11.10;99.90;;;;;;4999641;28;20054;-76
2023/06/02 04:39:51;;;;;;;20.13;3.75;;;11.10;99.90;;;;;;4967369;28;208602;-82
2023/06/02 04:42:17;;;;;;;17.85;3.50;;;11.20;99.90;;;;;;4992136;28;20062;-76
2023/06/02 04:44:47;;;;;;;23.83;3.85;;;11.20;99.90;;;;;;4859933;28;2995053;-76
2023/06/02 04:47:13;;;;;;;16.23;2.97;;;11.20;99.90;;;;;;4994784;28;20427;-76
2023/06/02 04:49:40;;;;;;;22.17;3.70;;;11.20;99.90;;;;;;4960806;28;206637;-76
2023/06/02 04:52:07;;;;;;;19.48;3.65;;;11.20;99.90;;;;;;4999056;28;20069;-77
2023/06/02 04:54:37;;;;;;;25.15;3.88;;;11.30;99.90;;;;;;4953728;28;157564;-75
2023/06/02 04:57:05;;;;;;;24.95;4.10;;;11.30;99.90;;;;;;4988288;28;20054;-77
2023/06/02 04:59:33;;;;;;;19.73;4.30;;;11.40;99.90;;;;;;4940337;28;219209;-75
2023/06/02 05:02:00;;;;;;;26.27;3.90;;;11.40;99.90;;;;;;5008519;28;20049;-76
2023/06/02 05:04:29;;;;;;;23.50;3.72;;;11.50;99.90;;;;;;4963116;28;232073;-78
2023/06/02 05:06:55;;;;;;;24.05;3.58;;;11.50;99.90;;;;;;4992238;28;20602;-77
2023/06/02 05:09:21;;;;;;;19.50;3.42;;;11.50;99.90;;;;;;4952808;28;205606;-76
2023/06/02 05:11:48;;;;;;;23.98;3.65;;;11.50;99.90;;;;;;5008152;28;20538;-77
2023/06/02 05:14:16;;;;;;;24.42;3.53;;;11.60;99.90;;;;;;4954211;28;276749;-77
2023/06/02 05:16:46;;;;;;;24.55;4.10;;;11.60;99.90;;;;;;5024309;28;20407;-79
2023/06/02 05:19:12;;;;;;;20.00;4.18;;;11.60;99.90;;;;;;4969940;28;198588;-78
2023/06/02 05:21:38;;;;;;;21.27;3.85;;;11.70;99.90;;;;;;4981511;28;20065;-77
2023/06/02 05:24:04;;;;;;;21.27;3.72;;;11.60;99.90;;;;;;4966980;28;215279;-77
2023/06/02 05:26:30;;;;;;;20.85;3.60;;;11.70;99.90;;;;;;5023419;28;20058;-77
2023/06/02 05:28:59;;;;;;;21.05;3.78;;;11.70;99.90;;;;;;4969235;28;208170;-78
2023/06/02 05:31:25;;;;;;;17.98;3.50;;;11.70;99.90;;;;;;5010976;28;20054;-78
2023/06/02 05:33:52;;;;;;;19.00;3.60;;;11.70;99.90;;;;;;4967851;28;204161;-79
2023/06/02 05:36:21;;;;;;;22.17;3.92;;;11.80;99.90;;;;;;5028048;28;20065;-77
2023/06/02 05:38:48;;;;;;;21.00;3.67;;;11.80;99.90;;;;;;4960476;28;205561;-75
2023/06/02 05:41:14;;;;;;;22.58;3.45;;;11.80;99.90;;;;;;5004615;28;20058;-75
2023/06/02 05:43:40;;;;;;;18.00;3.55;;;11.90;99.90;;;;;;4968904;28;227855;-77
2023/06/02 05:46:09;;;;;;;20.13;3.70;;;12.00;99.90;;;;;;4996814;28;20057;-75
2023/06/02 05:48:38;;;;;;;23.67;3.80;;;12.10;99.90;;;;;;4961625;28;207341;-76
2023/06/02 05:51:04;;;;;;;25.60;4.53;;;12.10;99.90;;;;;;5020440;28;20564;-75
2023/06/02 05:53:30;;;;;;;20.52;3.88;;;12.10;99.90;;;;;;4937355;28;220837;-76
2023/06/02 05:55:56;;;;;;;30.65;4.10;;;12.20;99.90;;;;;;5014475;28;20061;-75
2023/06/02 05:58:22;;;;;;;26.88;4.22;;;12.30;99.90;;;;;;4836576;28;2997355;-76
2023/06/02 06:00:56;;;;;;;24.33;4.20;;;12.30;99.90;;;;;;5003191;28;20065;-77
2023/06/02 06:03:22;;;;;;;27.38;3.97;;;12.40;99.90;;;;;;4952122;28;230417;-75
2023/06/02 06:05:51;;;;;;;32.25;4.88;;;12.40;99.90;;;;;;4997829;28;20051;-76
2023/06/02 06:08:17;;;;;;;24.73;3.97;;;12.50;99.90;;;;;;4948198;28;207657;-75
2023/06/02 06:10:43;;;;;;;22.35;4.15;;;12.60;99.90;;;;;;5018717;28;20044;-74
2023/06/02 06:13:09;;;;;;;26.23;4.18;;;12.70;99.90;;;;;;4958913;28;209685;-76
2023/06/02 06:15:38;;;;;;;30.25;4.47;;;12.70;99.90;;;;;;5035389;28;20069;-76
2023/06/02 06:18:05;;;;;;;26.55;4.25;;;12.80;99.90;;;;;;4991955;28;218291;-75
2023/06/02 06:20:31;;;;;;;25.77;3.90;;;12.90;99.90;;;;;;4970938;28;24734;-75
2023/06/02 06:22:57;;;;;;;29.35;4.43;;;13.00;99.90;;;;;;4988549;28;20069;-75
2023/06/02 06:25:23;;;;;;;28.55;4.00;;;13.10;99.90;;;;;;4986844;28;212655;-76
2023/06/02 06:27:52;;;;;;;29.02;4.22;;;13.10;99.90;;;;;;5007745;28;20069;-76
2023/06/02 06:30:21;;;;;;;27.80;4.97;;;13.20;99.90;;;;;;4974421;28;235663;-75
2023/06/02 06:32:47;;;;;;;24.77;4.55;;;13.30;99.90;;;;;;5008018;28;20058;-76
2023/06/02 06:35:14;;;;;;;23.40;4.72;;;13.30;99.90;;;;;;4960655;28;216758;-76
2023/06/02 06:37:42;;;;;;;27.45;4.63;;;13.30;99.90;;;;;;4987774;28;20057;-76
2023/06/02 06:40:09;;;;;;;27.90;4.43;;;13.30;99.90;;;;;;4940473;28;278043;-75
2023/06/02 06:42:35;;;;;;;28.58;4.47;;;13.30;99.90;;;;;;4987994;28;20050;-76
2023/06/02 06:45:01;;;;;;;24.50;4.53;;;13.40;99.90;;;;;;4953110;28;225922;-76
2023/06/02 06:47:27;;;;;;;28.13;5.18;;;13.50;99.90;;;;;;4989058;28;20057;-76
2023/06/02 06:49:54;;;;;;;28.83;4.75;;;13.80;99.90;;;;;;4972796;28;214680;-76
2023/06/02 06:52:20;;;;;;;29.88;4.90;;;13.90;99.90;;;;;;4988504;28;20049;-74
2023/06/02 06:54:46;;;;;;;28.20;4.65;;;14.00;99.90;;;;;;4959445;28;217123;-77
2023/06/02 06:57:13;;;;;;;25.20;4.68;;;14.10;99.90;;;;;;4986066;28;20047;-75
2023/06/02 06:59:44;;;;;;;29.35;5.47;;;14.30;99.90;;;;;;4928623;28;253665;-76
2023/06/02 07:02:10;;;;;;;31.50;4.75;;;14.40;99.90;;;;;;5006525;28;20049;-75
2023/06/02 07:04:36;;;;;;;28.00;4.95;;;14.40;99.90;;;;;;4951631;28;208005;-75
2023/06/02 07:07:03;;;;;;;28.77;4.75;;;14.50;99.90;;;;;;4985611;28;20808;-74
2023/06/02 07:09:29;;;;;;;25.42;4.78;;;14.70;99.90;;;;;;4953585;28;208399;-76
2023/06/02 07:11:58;;;;;;;26.33;5.60;;;14.80;99.90;;;;;;4987786;28;20061;-74
2023/06/02 07:14:24;;;;;;;28.27;5.38;;;14.90;99.90;;;;;;4953564;28;206535;-75
2023/06/02 07:16:54;;;;;;;31.55;5.57;;;15.00;99.90;;;;;;4995064;28;20073;-76
2023/06/02 07:19:21;;;;;;;26.88;4.75;;;15.40;99.90;;;;;;4958302;28;228825;-74
2023/06/02 07:21:47;;;;;;;26.52;5.20;;;15.40;99.90;;;;;;5014095;28;20060;-75
2023/06/02 07:24:16;;;;;;;26.13;5.18;;;15.50;99.90;;;;;;4963379;28;205911;-75
2023/06/02 07:26:42;;;;;;;23.73;4.88;;;15.60;99.90;;;;;;5013456;28;20056;-75
2023/06/02 07:29:08;;;;;;;27.33;5.13;;;15.80;99.90;;;;;;4974727;28;208137;-75
2023/06/02 07:31:35;;;;;;;27.48;4.78;;;15.80;99.90;;;;;;5019131;28;20058;-75
2023/06/02 07:34:01;;;;;;;25.88;4.70;;;16.00;99.90;;;;;;4966077;28;209634;-75
2023/06/02 07:36:27;;;;;;;25.50;5.03;;;16.20;99.90;;;;;;5017867;28;20393;-74
2023/06/02 07:38:53;;;;;;;25.33;4.85;;;16.40;99.90;;;;;;4952124;28;252190;-75
2023/06/02 07:41:23;;;;;;;22.85;4.35;;;16.60;99.90;;;;;;5020453;28;20073;-74
2023/06/02 07:43:49;;;;;;;23.73;4.40;;;17.20;99.90;;;;;;4960790;28;212486;-76
2023/06/02 07:46:15;;;;;;;29.52;5.15;;;17.70;99.90;;;;;;5019721;28;20060;-73
2023/06/02 07:48:41;;;;;;;24.27;4.57;;;17.60;99.90;;;;;;4949293;28;222061;-75
2023/06/02 07:51:07;;;;;;;25.77;4.63;;;17.70;99.90;;;;;;5004615;28;20683;-75
2023/06/02 07:53:33;;;;;;;21.55;4.15;;;17.60;99.90;;;;;;4938756;28;207159;-74
2023/06/02 07:55:59;;;;;;;21.02;3.92;;;17.20;99.90;;;;;;4995656;28;20062;-74
2023/06/02 07:58:28;;;;;;;20.95;4.18;;;16.90;99.90;;;;;;4915410;28;212413;-72
2023/06/02 08:00:54;;;;;;;20.00;3.78;;;17.30;99.90;;;;;;5032017;28;20061;-73
2023/06/02 08:03:21;;;;;;;24.08;4.47;;;17.30;99.90;;;;;;4958007;28;207897;-74
2023/06/02 08:05:47;;;;;;;19.98;4.00;;;17.10;99.90;;;;;;5043420;28;20053;-75
2023/06/02 08:08:13;;;;;;;21.38;3.70;;;16.90;99.90;;;;;;4961603;28;208954;-75
2023/06/02 08:10:39;;;;;;;21.50;3.72;;;16.90;99.90;;;;;;5035514;28;20053;-74
2023/06/02 08:13:06;;;;;;;21.17;4.43;;;17.40;99.90;;;;;;4995195;28;220670;-76
2023/06/02 08:15:32;;;;;;;22.42;3.80;;;17.70;99.90;;;;;;4995667;28;166072;-74
2023/06/02 08:17:58;;;;;;;20.98;4.10;;;17.80;99.90;;;;;;5011867;28;20054;-73
2023/06/02 08:20:24;;;;;;;17.45;3.50;;;18.40;99.90;;;;;;4974136;28;158085;-74
2023/06/02 08:22:50;;;;;;;19.98;4.13;;;19.10;99.90;;;;;;5010118;28;20062;-74
2023/06/02 08:25:19;;;;;;;20.20;3.47;;;19.80;99.90;;;;;;4965112;28;232804;-74
2023/06/02 08:27:45;;;;;;;20.70;4.00;;;20.60;99.90;;;;;;4991651;28;20081;-75
2023/06/02 08:30:12;;;;;;;27.95;4.20;;;20.90;99.90;;;;;;4940654;28;207459;-75
2023/06/02 08:32:39;;;;;;;18.15;3.50;;;21.00;98.60;;;;;;4993328;28;20050;-74
2023/06/02 08:35:05;;;;;;;18.40;3.63;;;21.20;99.20;;;;;;4975068;28;183063;-75
2023/06/02 08:37:34;;;;;;;18.77;3.60;;;21.50;98.60;;;;;;4990156;28;20058;-74
2023/06/02 08:40:01;;;;;;;16.75;3.05;;;21.80;97.70;;;;;;4958318;28;207083;-74
2023/06/02 08:42:27;;;;;;;15.73;3.10;;;21.80;97.50;;;;;;4993919;28;20054;-74
2023/06/02 08:44:53;;;;;;;17.10;3.30;;;21.90;97.30;;;;;;4972723;28;209069;-74
2023/06/02 08:47:24;;;;;;;17.35;3.20;;;21.90;96.80;;;;;;4994238;28;20108;-75
2023/06/02 08:49:51;;;;;;;14.63;3.10;;;22.20;97.00;;;;;;4968860;28;241251;-75
2023/06/02 08:52:22;;;;;;;18.40;3.17;;;22.50;97.20;;;;;;4994363;28;20046;-75
2023/06/02 08:54:50;;;;;;;22.70;3.42;;;22.90;96.40;;;;;;4964608;28;174203;-74
2023/06/02 08:57:16;;;;;;;17.50;2.97;;;22.80;95.60;;;;;;4989723;28;20054;-75
2023/06/02 08:59:46;;;;;;;15.30;2.88;;;22.80;95.20;;;;;;4967940;28;208183;-75
2023/06/02 09:02:14;;;;;;;11.48;2.40;;;23.10;95.10;;;;;;5009675;28;20092;-75
2023/06/02 09:04:40;;;;;;;10.90;2.08;;;23.20;94.90;;;;;;4983848;28;209829;-74
2023/06/02 09:07:12;;;;;;;13.00;2.55;;;23.60;94.10;;;;;;5013565;28;20068;-74
2023/06/02 09:09:43;;;;;;;11.13;2.00;;;23.50;92.70;;;;;;4977366;28;121098;-73
2023/06/02 09:12:09;;;;;;;12.88;2.42;;;23.50;92.80;;;;;;4994257;28;20046;-75
2023/06/02 09:14:39;;;;;;;14.48;2.60;;;24.00;91.90;;;;;;4973265;28;162006;-80
2023/06/02 09:17:25;;;;;;;11.52;2.08;;;24.30;92.30;;;;;;4990331;28;20411;-74
2023/06/02 09:19:56;;;;;;;10.75;2.20;;;24.50;91.50;;;;;;4942256;28;209014;-75
2023/06/02 09:22:23;;;;;;;11.48;1.90;;;24.30;92.40;;;;;;4988464;28;20061;-74
2023/06/02 09:24:50;;;;;;;11.38;2.15;;;23.60;91.50;;;;;;4957594;28;207298;-76
2023/06/02 09:27:16;;;;;;;10.38;2.00;;;24.20;91.80;;;;;;4986500;28;20048;-74
2023/06/02 09:29:46;;;;;;;10.38;2.05;;;23.80;91.20;;;;;;4944744;28;141323;-74
2023/06/02 09:32:16;;;;;;;10.63;2.05;;;24.00;90.60;;;;;;4988174;28;20049;-74
2023/06/02 09:34:45;;;;;;;9.80;1.80;;;24.20;90.30;;;;;;4959065;28;209085;-74
2023/06/02 09:37:19;;;;;;;9.43;1.63;;;24.10;90.50;;;;;;5010582;28;20069;-75
2023/06/02 09:39:48;;;;;;;12.93;2.00;;;24.10;89.30;;;;;;4950419;28;212275;-73
2023/06/02 09:42:17;;;;;;;9.38;1.80;;;23.90;90.00;;;;;;4985747;28;20535;-76
2023/06/02 09:45:08;;;;;;;8.18;1.70;;;23.60;89.70;;;;;;4958719;28;210009;-76
2023/06/02 09:47:40;;;;;;;10.60;1.88;;;23.40;86.90;;;;;;4983908;28;20050;-73
2023/06/02 09:50:08;;;;;;;7.90;1.70;;;24.50;89.60;;;;;;4954467;28;210210;-74
2023/06/02 09:52:37;;;;;;;10.00;1.70;;;25.40;88.00;;;;;;4990031;28;20054;-74
2023/06/02 09:55:07;;;;;;;8.57;1.50;;;25.80;85.90;;;;;;4970646;28;207367;-74
2023/06/02 09:57:34;;;;;;;8.70;1.45;;;25.90;84.90;;;;;;5011630;28;20057;-73
2023/06/02 10:00:01;;;;;;;9.65;1.52;;;25.80;82.50;;;;;;4941275;28;207194;-75
2023/06/02 10:02:27;;;;;;;7.63;1.50;;;25.80;83.30;;;;;;5010559;28;20052;-75
2023/06/02 10:04:53;;;;;;;8.65;1.65;;;26.30;82.10;;;;;;4942523;28;221732;-75
2023/06/02 10:07:46;;;;;;;8.95;1.42;;;26.60;82.00;;;;;;5008658;28;20053;-74
2023/06/02 10:10:41;;;;;;;10.02;1.83;;;26.50;80.10;;;;;;4959297;28;219143;-74
2023/06/02 10:13:21;;;;;;;9.27;1.57;;;26.30;80.20;;;;;;4976731;28;219963;-73
2023/06/02 10:16:25;;;;;;;7.20;1.40;;;26.60;81.00;;;;;;4983878;28;20051;-74
2023/06/02 10:19:19;;;;;;;7.05;1.42;;;25.70;78.30;;;;;;4943948;28;278165;-73
2023/06/02 10:22:23;;;;;;;6.88;1.35;;;25.20;80.20;;;;;;5013080;28;20084;-74
2023/06/02 10:24:55;;;;;;;9.25;1.60;;;24.70;78.10;;;;;;4972502;28;207495;-74
2023/06/02 10:27:37;;;;;;;12.88;1.58;;;25.00;79.70;;;;;;4988152;28;20504;-74
2023/06/02 10:30:03;;;;;;;8.80;1.80;;;25.40;81.50;;;;;;4970811;28;207103;-75
2023/06/02 10:32:40;;;;;;;7.55;1.50;;;25.30;80.50;;;;;;4992967;28;20050;-73
2023/06/02 10:35:07;;;;;;;9.70;1.58;;;24.20;80.50;;;;;;4981556;28;206972;-75
2023/06/02 10:37:34;;;;;;;16.75;1.90;;;23.20;82.10;;;;;;5009097;28;20061;-73
2023/06/02 10:40:00;;;;;;;8.88;1.60;;;23.60;81.80;;;;;;4873107;28;2713149;-74
2023/06/02 10:42:27;;;;;;;11.02;1.73;;;24.60;83.40;;;;;;5008257;28;20636;-75
2023/06/02 10:45:18;;;;;;;7.20;1.50;;;26.00;82.20;;;;;;4973824;28;210215;-74
2023/06/02 10:47:46;;;;;;;12.85;1.75;;;25.90;79.20;;;;;;5009921;28;20057;-73
2023/06/02 10:50:21;;;;;;;10.77;1.52;;;24.70;80.80;;;;;;4964204;28;207986;-72
2023/06/02 10:53:14;;;;;;;10.27;1.70;;;24.90;80.90;;;;;;4988241;28;20059;-73
2023/06/02 10:55:41;;;;;;;9.13;1.70;;;23.70;78.50;;;;;;4942311;28;87232;-73
2023/06/02 10:58:09;;;;;;;9.13;1.40;;;22.80;80.60;;;;;;4963460;28;207107;-72
2023/06/02 11:00:45;;;;;;;8.70;1.55;;;22.40;81.60;;;;;;4989663;28;20049;-73
2023/06/02 11:03:17;;;;;;;8.13;1.63;;;22.80;81.70;;;;;;4940288;28;205337;-75
2023/06/02 11:05:45;;;;;;;7.70;1.50;;;23.50;81.30;;;;;;5015169;28;20050;-74
2023/06/02 11:08:14;;;;;;;10.27;1.70;;;23.60;80.40;;;;;;4933400;28;206666;-75
2023/06/02 11:10:49;;;;;;;10.15;1.77;;;24.00;81.40;;;;;;4988904;28;20053;-74
2023/06/02 11:13:16;;;;;;;7.72;1.48;;;24.50;79.50;;;;;;4934422;28;238740;-76
2023/06/02 11:15:52;;;;;;;8.77;1.50;;;24.90;78.20;;;;;;5018987;28;20058;-75
2023/06/02 11:18:26;;;;;;;7.27;1.30;;;25.20;75.50;;;;;;4942148;28;180783;-75
2023/06/02 11:20:53;;;;;;;8.85;1.40;;;25.00;76.30;;;;;;5015491;28;20053;-76
2023/06/02 11:23:20;;;;;;;11.57;1.90;;;24.70;75.70;;;;;;4938045;28;212908;-76
2023/06/02 11:25:48;;;;;;;11.18;1.58;;;24.70;77.00;;;;;;5016531;28;20054;-75
2023/06/02 11:28:22;;;;;;;8.18;1.35;;;25.30;76.00;;;;;;4941113;28;214465;-75
2023/06/02 11:31:08;;;;;;;5.75;1.40;;;25.90;75.40;;;;;;4995790;28;20489;-74
2023/06/02 11:33:39;;;;;;;7.38;1.50;;;25.80;71.70;;;;;;4955123;28;282976;-75
2023/06/02 11:36:06;;;;;;;;;;;25.80;73.00;;;;;;4996821;28;20058;-73
2023/06/02 11:38:33;;;;;;;6.78;1.50;;;26.00;70.10;;;;;;4944512;28;207666;-75
2023/06/02 11:41:13;;;;;;;7.20;1.20;;;25.90;71.60;;;;;;5016507;28;20062;-76
2023/06/02 11:43:50;;;;;;;5.72;1.20;;;25.70;68.50;;;;;;4960424;28;150365;-74
2023/06/02 11:46:20;;;;;;;7.13;1.40;;;25.40;69.60;;;;;;5017636;28;20046;-75
2023/06/02 11:48:46;;;;;;;7.43;1.30;;;25.70;70.10;;;;;;4955388;28;213620;-75
2023/06/02 11:51:15;;;;;;;8.68;1.50;;;25.80;69.80;;;;;;5018121;28;20050;-75
2023/06/02 11:53:45;;;;;;;7.22;1.58;;;26.00;70.30;;;;;;4955463;28;209243;-75
2023/06/02 11:56:15;;;;;;;;;;;26.30;70.10;;;;;;5031768;28;20487;-76
2023/06/02 11:58:46;;;;;;;8.63;1.42;;;26.50;71.30;;;;;;4906664;28;1378170;-74
2023/06/02 12:01:17;;;;;;;9.80;1.75;;;26.40;70.10;;;;;;5026435;28;20046;-75
2023/06/02 12:04:05;;;;;;;6.45;1.45;;;26.00;72.20;;;;;;4977593;28;209535;-75
2023/06/02 12:06:36;;;;;;;8.20;1.60;;;26.40;72.60;;;;;;5021447;28;20049;-75
2023/06/02 12:09:16;;;;;;;9.05;1.70;;;26.70;71.80;;;;;;4943986;28;230692;-75
2023/06/02 12:11:43;;;;;;;9.63;1.77;;;26.70;72.20;;;;;;4983666;28;20534;-75
2023/06/02 12:14:10;;;;;;;8.20;1.60;;;26.40;71.20;;;;;;4943944;28;220557;-75
2023/06/02 12:16:42;;;;;;;8.50;1.42;;;26.60;71.90;;;;;;4992888;28;20069;-75
2023/06/02 12:19:20;;;;;;;8.23;1.80;;;26.50;70.10;;;;;;4948915;28;205435;-75
2023/06/02 12:21:47;;;;;;;8.73;1.75;;;26.60;71.10;;;;;;4992219;28;20407;-75
2023/06/02 12:24:33;;;;;;;9.95;2.00;;;26.70;70.90;;;;;;4949484;28;207549;-74
2023/06/02 12:27:00;;;;;;;10.02;1.88;;;26.70;70.40;;;;;;5006895;28;20053;-75
2023/06/02 12:29:27;;;;;;;10.13;2.20;;;26.90;71.40;;;;;;4959301;28;210473;-75
2023/06/02 12:32:05;;;;;;;8.20;1.80;;;27.20;73.20;;;;;;5003274;28;20590;-74
2023/06/02 12:34:32;;;;;;;8.43;1.73;;;27.50;73.20;;;;;;4965091;28;210205;-76
2023/06/02 12:37:00;;;;;;;9.15;1.77;;;27.80;72.90;;;;;;5008682;28;20054;-74
2023/06/02 12:39:26;;;;;;;9.30;1.90;;;27.10;72.50;;;;;;4969907;28;206930;-74
2023/06/02 12:41:52;;;;;;;9.27;1.98;;;26.30;73.20;;;;;;5011579;28;20068;-75